sensor_id;sensor_type;location;lat;lon;timestamp;P1;durP1;ratioP1;P2;durP2;ratioP2
77880;SDS011;67077;50.298;18.996;2023-02-15T00:00:13;40.00;;;22.50;;
77880;SDS011;67077;50.298;18.996;2023-02-15T00:03:21;44.00;;;23.90;;
77880;SDS011;67077;50.298;18.996;2023-02-15T00:05:49;42.10;;;24.10;;
77880;SDS011;67077;50.298;18.996;2023-02-15T00:08:17;44.80;;;23.50;;
77880;SDS011;67077;50.298;18.996;2023-02-15T00:10:45;32.80;;;16.60;;
77880;SDS011;67077;50.298;18.996;2023-02-15T00:13:13;39.40;;;21.50;;
77880;SDS011;67077;50.298;18.996;2023-02-15T00:15:41;44.10;;;21.70;;
77880;SDS011;67077;50.298;18.996;2023-02-15T00:18:09;45.00;;;22.70;;
77880;SDS011;67077;50.298;18.996;2023-02-15T00:20:37;46.70;;;24.50;;
77880;SDS011;67077;50.298;18.996;2023-02-15T00:23:05;45.90;;;23.80;;
77880;SDS011;67077;50.298;18.996;2023-02-15T00:25:33;49.40;;;24.00;;
77880;SDS011;67077;50.298;18.996;2023-02-15T00:28:01;47.70;;;25.40;;
77880;SDS011;67077;50.298;18.996;2023-02-15T00:30:29;48.20;;;25.60;;
77880;SDS011;67077;50.298;18.996;2023-02-15T00:32:57;53.20;;;24.30;;
77880;SDS011;67077;50.298;18.996;2023-02-15T00:35:34;50.40;;;24.30;;
77880;SDS011;67077;50.298;18.996;2023-02-15T00:38:39;52.30;;;25.30;;
77880;SDS011;67077;50.298;18.996;2023-02-15T00:41:07;51.20;;;26.20;;
77880;SDS011;67077;50.298;18.996;2023-02-15T00:43:36;54.10;;;28.90;;
77880;SDS011;67077;50.298;18.996;2023-02-15T00:46:05;58.60;;;27.80;;
77880;SDS011;67077;50.298;18.996;2023-02-15T00:48:33;57.90;;;29.60;;
77880;SDS011;67077;50.298;18.996;2023-02-15T00:51:01;63.00;;;31.70;;
77880;SDS011;67077;50.298;18.996;2023-02-15T00:53:30;60.70;;;29.80;;
77880;SDS011;67077;50.298;18.996;2023-02-15T00:55:58;55.80;;;28.50;;
77880;SDS011;67077;50.298;18.996;2023-02-15T00:58:26;52.00;;;25.90;;
77880;SDS011;67077;50.298;18.996;2023-02-15T01:00:54;50.90;;;25.30;;
77880;SDS011;67077;50.298;18.996;2023-02-15T01:03:22;48.20;;;23.60;;
77880;SDS011;67077;50.298;18.996;2023-02-15T01:05:50;48.30;;;24.60;;
77880;SDS011;67077;50.298;18.996;2023-02-15T01:08:18;54.70;;;26.10;;
77880;SDS011;67077;50.298;18.996;2023-02-15T01:10:45;58.10;;;28.60;;
77880;SDS011;67077;50.298;18.996;2023-02-15T01:13:14;59.10;;;29.50;;
77880;SDS011;67077;50.298;18.996;2023-02-15T01:15:43;61.80;;;31.60;;
77880;SDS011;67077;50.298;18.996;2023-02-15T01:18:12;68.00;;;35.10;;
77880;SDS011;67077;50.298;18.996;2023-02-15T01:20:40;69.60;;;33.80;;
77880;SDS011;67077;50.298;18.996;2023-02-15T01:23:09;71.40;;;34.70;;
77880;SDS011;67077;50.298;18.996;2023-02-15T01:25:37;74.20;;;35.60;;
77880;SDS011;67077;50.298;18.996;2023-02-15T01:28:05;79.00;;;37.70;;
77880;SDS011;67077;50.298;18.996;2023-02-15T01:30:33;50.70;;;26.40;;
77880;SDS011;67077;50.298;18.996;2023-02-15T01:33:01;75.30;;;34.80;;
77880;SDS011;67077;50.298;18.996;2023-02-15T01:35:29;62.50;;;31.00;;
77880;SDS011;67077;50.298;18.996;2023-02-15T01:37:58;72.90;;;34.40;;
77880;SDS011;67077;50.298;18.996;2023-02-15T01:40:26;63.40;;;32.90;;
77880;SDS011;67077;50.298;18.996;2023-02-15T01:42:54;57.40;;;29.70;;
77880;SDS011;67077;50.298;18.996;2023-02-15T01:45:30;58.00;;;29.70;;
77880;SDS011;67077;50.298;18.996;2023-02-15T01:48:02;64.40;;;30.70;;
77880;SDS011;67077;50.298;18.996;2023-02-15T01:50:33;58.10;;;29.20;;
77880;SDS011;67077;50.298;18.996;2023-02-15T01:53:15;54.90;;;28.10;;
77880;SDS011;67077;50.298;18.996;2023-02-15T01:55:57;53.30;;;28.00;;
77880;SDS011;67077;50.298;18.996;2023-02-15T01:58:28;51.70;;;26.90;;
77880;SDS011;67077;50.298;18.996;2023-02-15T02:00:58;59.40;;;28.70;;
77880;SDS011;67077;50.298;18.996;2023-02-15T02:06:15;50.30;;;27.20;;
77880;SDS011;67077;50.298;18.996;2023-02-15T02:08:43;55.80;;;30.30;;
77880;SDS011;67077;50.298;18.996;2023-02-15T02:11:12;53.50;;;26.00;;
77880;SDS011;67077;50.298;18.996;2023-02-15T02:13:44;49.20;;;26.70;;
77880;SDS011;67077;50.298;18.996;2023-02-15T02:16:15;47.20;;;26.20;;
77880;SDS011;67077;50.298;18.996;2023-02-15T02:27:41;45.90;;;23.40;;
77880;SDS011;67077;50.298;18.996;2023-02-15T02:35:48;38.80;;;20.30;;
77880;SDS011;67077;50.298;18.996;2023-02-15T02:46:48;42.10;;;21.10;;
77880;SDS011;67077;50.298;18.996;2023-02-15T02:49:35;45.90;;;22.00;;
77880;SDS011;67077;50.298;18.996;2023-02-15T02:55:29;43.90;;;23.10;;
77880;SDS011;67077;50.298;18.996;2023-02-15T03:00:51;48.60;;;23.60;;
77880;SDS011;67077;50.298;18.996;2023-02-15T03:05:59;43.80;;;22.70;;
77880;SDS011;67077;50.298;18.996;2023-02-15T03:08:34;48.30;;;23.80;;
77880;SDS011;67077;50.298;18.996;2023-02-15T03:11:05;46.70;;;23.10;;
77880;SDS011;67077;50.298;18.996;2023-02-15T03:13:34;51.50;;;25.90;;
77880;SDS011;67077;50.298;18.996;2023-02-15T03:16:04;49.00;;;23.40;;
77880;SDS011;67077;50.298;18.996;2023-02-15T03:18:58;48.60;;;25.20;;
77880;SDS011;67077;50.298;18.996;2023-02-15T03:24:10;44.00;;;22.30;;
77880;SDS011;67077;50.298;18.996;2023-02-15T03:26:42;51.50;;;24.50;;
77880;SDS011;67077;50.298;18.996;2023-02-15T03:29:13;51.30;;;25.80;;
77880;SDS011;67077;50.298;18.996;2023-02-15T03:31:45;49.10;;;23.40;;
77880;SDS011;67077;50.298;18.996;2023-02-15T03:34:18;49.10;;;22.50;;
77880;SDS011;67077;50.298;18.996;2023-02-15T03:39:45;55.90;;;25.90;;
77880;SDS011;67077;50.298;18.996;2023-02-15T03:42:28;51.40;;;25.10;;
77880;SDS011;67077;50.298;18.996;2023-02-15T03:45:04;51.70;;;24.50;;
77880;SDS011;67077;50.298;18.996;2023-02-15T03:47:43;53.10;;;26.20;;
77880;SDS011;67077;50.298;18.996;2023-02-15T03:50:18;53.80;;;25.40;;
77880;SDS011;67077;50.298;18.996;2023-02-15T03:53:10;46.70;;;21.90;;
77880;SDS011;67077;50.298;18.996;2023-02-15T03:55:45;45.10;;;21.90;;
77880;SDS011;67077;50.298;18.996;2023-02-15T03:58:16;48.70;;;24.80;;
77880;SDS011;67077;50.298;18.996;2023-02-15T04:01:04;53.20;;;25.70;;
77880;SDS011;67077;50.298;18.996;2023-02-15T04:04:03;54.30;;;26.80;;
77880;SDS011;67077;50.298;18.996;2023-02-15T04:06:44;46.40;;;23.10;;
77880;SDS011;67077;50.298;18.996;2023-02-15T04:09:12;50.40;;;23.90;;
77880;SDS011;67077;50.298;18.996;2023-02-15T04:11:59;49.40;;;26.00;;
77880;SDS011;67077;50.298;18.996;2023-02-15T04:14:27;48.10;;;24.40;;
77880;SDS011;67077;50.298;18.996;2023-02-15T04:17:14;51.40;;;26.10;;
77880;SDS011;67077;50.298;18.996;2023-02-15T04:19:42;47.20;;;23.10;;
77880;SDS011;67077;50.298;18.996;2023-02-15T04:22:28;48.00;;;23.40;;
77880;SDS011;67077;50.298;18.996;2023-02-15T04:25:15;50.60;;;25.70;;
77880;SDS011;67077;50.298;18.996;2023-02-15T04:27:44;50.00;;;25.20;;
77880;SDS011;67077;50.298;18.996;2023-02-15T04:30:18;52.20;;;25.60;;
77880;SDS011;67077;50.298;18.996;2023-02-15T04:32:47;53.20;;;25.30;;
77880;SDS011;67077;50.298;18.996;2023-02-15T04:35:15;57.50;;;27.20;;
77880;SDS011;67077;50.298;18.996;2023-02-15T04:37:44;54.80;;;26.00;;
77880;SDS011;67077;50.298;18.996;2023-02-15T04:40:13;59.80;;;28.10;;
77880;SDS011;67077;50.298;18.996;2023-02-15T04:42:42;61.00;;;28.20;;
77880;SDS011;67077;50.298;18.996;2023-02-15T04:45:10;56.00;;;26.40;;
77880;SDS011;67077;50.298;18.996;2023-02-15T04:47:38;63.20;;;28.50;;
77880;SDS011;67077;50.298;18.996;2023-02-15T04:50:06;68.70;;;27.70;;
77880;SDS011;67077;50.298;18.996;2023-02-15T04:52:36;62.70;;;29.70;;
77880;SDS011;67077;50.298;18.996;2023-02-15T04:55:04;62.40;;;29.00;;
77880;SDS011;67077;50.298;18.996;2023-02-15T04:57:32;60.00;;;26.90;;
77880;SDS011;67077;50.298;18.996;2023-02-15T05:00:00;60.50;;;27.30;;
77880;SDS011;67077;50.298;18.996;2023-02-15T05:02:28;66.10;;;28.90;;
77880;SDS011;67077;50.298;18.996;2023-02-15T05:04:56;64.40;;;30.00;;
77880;SDS011;67077;50.298;18.996;2023-02-15T05:07:24;61.90;;;29.00;;
77880;SDS011;67077;50.298;18.996;2023-02-15T05:09:52;62.00;;;28.20;;
77880;SDS011;67077;50.298;18.996;2023-02-15T05:12:20;66.70;;;28.20;;
77880;SDS011;67077;50.298;18.996;2023-02-15T05:14:48;60.50;;;26.90;;
77880;SDS011;67077;50.298;18.996;2023-02-15T05:17:16;67.70;;;31.50;;
77880;SDS011;67077;50.298;18.996;2023-02-15T05:19:44;76.10;;;34.10;;
77880;SDS011;67077;50.298;18.996;2023-02-15T05:22:12;70.30;;;31.20;;
77880;SDS011;67077;50.298;18.996;2023-02-15T05:24:41;65.80;;;29.40;;
77880;SDS011;67077;50.298;18.996;2023-02-15T05:27:27;68.90;;;30.00;;
77880;SDS011;67077;50.298;18.996;2023-02-15T05:30:14;71.60;;;31.30;;
77880;SDS011;67077;50.298;18.996;2023-02-15T05:32:42;63.30;;;28.70;;
77880;SDS011;67077;50.298;18.996;2023-02-15T05:35:12;68.20;;;30.80;;
77880;SDS011;67077;50.298;18.996;2023-02-15T05:37:42;65.60;;;27.40;;
77880;SDS011;67077;50.298;18.996;2023-02-15T05:40:10;66.10;;;29.10;;
77880;SDS011;67077;50.298;18.996;2023-02-15T05:42:38;66.20;;;30.00;;
77880;SDS011;67077;50.298;18.996;2023-02-15T05:45:06;63.70;;;27.80;;
77880;SDS011;67077;50.298;18.996;2023-02-15T05:47:34;71.10;;;32.70;;
77880;SDS011;67077;50.298;18.996;2023-02-15T05:50:02;73.70;;;33.50;;
77880;SDS011;67077;50.298;18.996;2023-02-15T05:52:30;69.10;;;29.70;;
77880;SDS011;67077;50.298;18.996;2023-02-15T05:54:58;55.60;;;26.30;;
77880;SDS011;67077;50.298;18.996;2023-02-15T05:57:27;61.50;;;27.50;;
77880;SDS011;67077;50.298;18.996;2023-02-15T05:59:55;62.90;;;29.10;;
77880;SDS011;67077;50.298;18.996;2023-02-15T06:02:23;56.70;;;27.00;;
77880;SDS011;67077;50.298;18.996;2023-02-15T06:04:51;69.70;;;31.00;;
77880;SDS011;67077;50.298;18.996;2023-02-15T06:07:19;64.60;;;29.40;;
77880;SDS011;67077;50.298;18.996;2023-02-15T06:09:47;59.60;;;27.80;;
77880;SDS011;67077;50.298;18.996;2023-02-15T06:12:15;61.60;;;28.30;;
77880;SDS011;67077;50.298;18.996;2023-02-15T06:14:43;62.60;;;29.30;;
77880;SDS011;67077;50.298;18.996;2023-02-15T06:17:11;66.20;;;29.30;;
77880;SDS011;67077;50.298;18.996;2023-02-15T06:19:39;67.70;;;29.50;;
77880;SDS011;67077;50.298;18.996;2023-02-15T06:22:07;62.50;;;29.70;;
77880;SDS011;67077;50.298;18.996;2023-02-15T06:24:35;59.10;;;29.50;;
77880;SDS011;67077;50.298;18.996;2023-02-15T06:27:03;58.30;;;28.20;;
77880;SDS011;67077;50.298;18.996;2023-02-15T06:29:31;60.70;;;30.00;;
77880;SDS011;67077;50.298;18.996;2023-02-15T06:31:59;61.20;;;29.10;;
77880;SDS011;67077;50.298;18.996;2023-02-15T06:34:27;65.40;;;29.10;;
77880;SDS011;67077;50.298;18.996;2023-02-15T06:36:55;58.60;;;27.90;;
77880;SDS011;67077;50.298;18.996;2023-02-15T06:39:51;59.70;;;29.60;;
77880;SDS011;67077;50.298;18.996;2023-02-15T06:42:20;58.80;;;28.70;;
77880;SDS011;67077;50.298;18.996;2023-02-15T06:44:49;61.00;;;29.50;;
77880;SDS011;67077;50.298;18.996;2023-02-15T06:47:17;67.40;;;33.00;;
77880;SDS011;67077;50.298;18.996;2023-02-15T06:49:45;64.70;;;31.40;;
77880;SDS011;67077;50.298;18.996;2023-02-15T06:52:13;57.50;;;27.20;;
77880;SDS011;67077;50.298;18.996;2023-02-15T06:54:42;65.50;;;32.60;;
77880;SDS011;67077;50.298;18.996;2023-02-15T06:57:10;54.80;;;27.60;;
77880;SDS011;67077;50.298;18.996;2023-02-15T06:59:38;54.00;;;26.80;;
77880;SDS011;67077;50.298;18.996;2023-02-15T07:02:06;55.40;;;26.10;;
77880;SDS011;67077;50.298;18.996;2023-02-15T07:04:35;57.60;;;28.40;;
77880;SDS011;67077;50.298;18.996;2023-02-15T07:07:04;59.10;;;29.60;;
77880;SDS011;67077;50.298;18.996;2023-02-15T07:09:36;58.60;;;28.30;;
77880;SDS011;67077;50.298;18.996;2023-02-15T07:12:06;50.60;;;24.70;;
77880;SDS011;67077;50.298;18.996;2023-02-15T07:14:53;57.50;;;27.70;;
77880;SDS011;67077;50.298;18.996;2023-02-15T07:17:21;53.00;;;25.90;;
77880;SDS011;67077;50.298;18.996;2023-02-15T07:19:49;57.20;;;29.50;;
77880;SDS011;67077;50.298;18.996;2023-02-15T07:22:17;62.80;;;29.40;;
77880;SDS011;67077;50.298;18.996;2023-02-15T07:24:46;65.60;;;29.60;;
77880;SDS011;67077;50.298;18.996;2023-02-15T07:27:15;53.60;;;25.00;;
77880;SDS011;67077;50.298;18.996;2023-02-15T07:29:43;56.70;;;27.90;;
77880;SDS011;67077;50.298;18.996;2023-02-15T07:32:11;53.00;;;26.20;;
77880;SDS011;67077;50.298;18.996;2023-02-15T07:34:40;50.10;;;25.90;;
77880;SDS011;67077;50.298;18.996;2023-02-15T07:37:08;61.00;;;28.70;;
77880;SDS011;67077;50.298;18.996;2023-02-15T07:39:36;58.80;;;28.60;;
77880;SDS011;67077;50.298;18.996;2023-02-15T07:42:04;49.70;;;24.70;;
77880;SDS011;67077;50.298;18.996;2023-02-15T07:44:32;59.20;;;29.90;;
77880;SDS011;67077;50.298;18.996;2023-02-15T07:47:00;65.10;;;31.70;;
77880;SDS011;67077;50.298;18.996;2023-02-15T07:49:28;57.70;;;28.50;;
77880;SDS011;67077;50.298;18.996;2023-02-15T07:51:56;64.10;;;28.90;;
77880;SDS011;67077;50.298;18.996;2023-02-15T07:54:24;57.80;;;29.30;;
77880;SDS011;67077;50.298;18.996;2023-02-15T07:56:52;57.80;;;28.80;;
77880;SDS011;67077;50.298;18.996;2023-02-15T07:59:20;53.40;;;26.80;;
77880;SDS011;67077;50.298;18.996;2023-02-15T08:01:48;54.90;;;27.00;;
77880;SDS011;67077;50.298;18.996;2023-02-15T08:04:16;62.20;;;29.20;;
77880;SDS011;67077;50.298;18.996;2023-02-15T08:06:45;52.50;;;25.20;;
77880;SDS011;67077;50.298;18.996;2023-02-15T08:09:13;47.90;;;26.10;;
77880;SDS011;67077;50.298;18.996;2023-02-15T08:11:41;54.00;;;27.70;;
77880;SDS011;67077;50.298;18.996;2023-02-15T08:14:11;57.70;;;29.30;;
77880;SDS011;67077;50.298;18.996;2023-02-15T08:16:51;59.30;;;29.60;;
77880;SDS011;67077;50.298;18.996;2023-02-15T08:19:23;57.90;;;29.00;;
77880;SDS011;67077;50.298;18.996;2023-02-15T08:21:56;51.90;;;25.70;;
77880;SDS011;67077;50.298;18.996;2023-02-15T08:24:27;51.90;;;27.40;;
77880;SDS011;67077;50.298;18.996;2023-02-15T08:26:58;54.60;;;27.00;;
77880;SDS011;67077;50.298;18.996;2023-02-15T08:29:27;50.50;;;24.70;;
77880;SDS011;67077;50.298;18.996;2023-02-15T08:31:57;55.60;;;26.80;;
77880;SDS011;67077;50.298;18.996;2023-02-15T08:34:30;52.60;;;26.60;;
77880;SDS011;67077;50.298;18.996;2023-02-15T08:37:01;57.10;;;29.60;;
77880;SDS011;67077;50.298;18.996;2023-02-15T08:39:29;48.60;;;24.80;;
77880;SDS011;67077;50.298;18.996;2023-02-15T08:41:57;54.30;;;26.60;;
77880;SDS011;67077;50.298;18.996;2023-02-15T08:44:25;56.70;;;29.70;;
77880;SDS011;67077;50.298;18.996;2023-02-15T08:46:53;55.70;;;27.90;;
77880;SDS011;67077;50.298;18.996;2023-02-15T08:49:22;64.30;;;31.20;;
77880;SDS011;67077;50.298;18.996;2023-02-15T08:51:50;54.10;;;28.10;;
77880;SDS011;67077;50.298;18.996;2023-02-15T08:54:19;62.20;;;30.60;;
77880;SDS011;67077;50.298;18.996;2023-02-15T08:56:49;62.90;;;30.30;;
77880;SDS011;67077;50.298;18.996;2023-02-15T08:59:18;55.90;;;28.80;;
77880;SDS011;67077;50.298;18.996;2023-02-15T09:01:49;62.30;;;30.80;;
77880;SDS011;67077;50.298;18.996;2023-02-15T09:04:19;55.10;;;28.80;;
77880;SDS011;67077;50.298;18.996;2023-02-15T09:06:48;57.10;;;30.00;;
77880;SDS011;67077;50.298;18.996;2023-02-15T09:09:18;59.80;;;30.60;;
77880;SDS011;67077;50.298;18.996;2023-02-15T09:11:47;68.80;;;33.20;;
77880;SDS011;67077;50.298;18.996;2023-02-15T09:14:18;59.40;;;29.60;;
77880;SDS011;67077;50.298;18.996;2023-02-15T09:16:48;56.10;;;29.70;;
77880;SDS011;67077;50.298;18.996;2023-02-15T09:19:19;55.00;;;27.60;;
77880;SDS011;67077;50.298;18.996;2023-02-15T09:21:48;56.20;;;27.60;;
77880;SDS011;67077;50.298;18.996;2023-02-15T09:24:16;60.90;;;29.50;;
77880;SDS011;67077;50.298;18.996;2023-02-15T09:26:46;58.80;;;29.40;;
77880;SDS011;67077;50.298;18.996;2023-02-15T09:29:16;58.70;;;29.00;;
77880;SDS011;67077;50.298;18.996;2023-02-15T09:31:45;63.00;;;31.90;;
77880;SDS011;67077;50.298;18.996;2023-02-15T09:34:17;54.90;;;28.80;;
77880;SDS011;67077;50.298;18.996;2023-02-15T09:36:46;50.50;;;26.00;;
77880;SDS011;67077;50.298;18.996;2023-02-15T09:39:16;51.30;;;25.80;;
77880;SDS011;67077;50.298;18.996;2023-02-15T10:04:54;55.80;;;28.40;;
77880;SDS011;67077;50.298;18.996;2023-02-15T10:28:18;49.00;;;24.50;;
77880;SDS011;67077;50.298;18.996;2023-02-15T10:30:51;49.60;;;26.00;;
77880;SDS011;67077;50.298;18.996;2023-02-15T10:36:18;45.90;;;24.40;;
77880;SDS011;67077;50.298;18.996;2023-02-15T10:41:52;37.00;;;18.70;;
77880;SDS011;67077;50.298;18.996;2023-02-15T11:06:50;45.10;;;23.80;;
77880;SDS011;67077;50.298;18.996;2023-02-15T11:09:22;39.50;;;21.70;;
77880;SDS011;67077;50.298;18.996;2023-02-15T11:11:53;39.30;;;20.60;;
77880;SDS011;67077;50.298;18.996;2023-02-15T11:14:36;34.80;;;18.10;;
77880;SDS011;67077;50.298;18.996;2023-02-15T11:17:12;32.60;;;18.30;;
77880;SDS011;67077;50.298;18.996;2023-02-15T11:22:30;39.70;;;18.70;;
77880;SDS011;67077;50.298;18.996;2023-02-15T11:25:01;32.40;;;17.90;;
77880;SDS011;67077;50.298;18.996;2023-02-15T11:27:41;32.40;;;16.70;;
77880;SDS011;67077;50.298;18.996;2023-02-15T11:30:11;29.10;;;15.80;;
77880;SDS011;67077;50.298;18.996;2023-02-15T11:35:20;36.10;;;19.60;;
77880;SDS011;67077;50.298;18.996;2023-02-15T11:40:44;36.90;;;19.10;;
77880;SDS011;67077;50.298;18.996;2023-02-15T11:43:34;33.20;;;18.70;;
77880;SDS011;67077;50.298;18.996;2023-02-15T11:46:07;38.10;;;20.20;;
77880;SDS011;67077;50.298;18.996;2023-02-15T11:48:42;35.80;;;19.00;;
77880;SDS011;67077;50.298;18.996;2023-02-15T11:51:14;37.70;;;20.10;;
77880;SDS011;67077;50.298;18.996;2023-02-15T11:53:46;37.20;;;19.30;;
77880;SDS011;67077;50.298;18.996;2023-02-15T11:56:16;33.20;;;18.60;;
77880;SDS011;67077;50.298;18.996;2023-02-15T11:59:00;36.30;;;20.30;;
77880;SDS011;67077;50.298;18.996;2023-02-15T12:01:32;38.50;;;21.40;;
77880;SDS011;67077;50.298;18.996;2023-02-15T12:06:45;38.80;;;20.50;;
77880;SDS011;67077;50.298;18.996;2023-02-15T12:12:23;37.80;;;20.30;;
77880;SDS011;67077;50.298;18.996;2023-02-15T12:15:14;38.40;;;20.60;;
77880;SDS011;67077;50.298;18.996;2023-02-15T12:17:49;36.60;;;20.20;;
77880;SDS011;67077;50.298;18.996;2023-02-15T12:22:51;29.40;;;18.00;;
77880;SDS011;67077;50.298;18.996;2023-02-15T12:25:27;35.90;;;19.00;;
77880;SDS011;67077;50.298;18.996;2023-02-15T12:28:03;32.60;;;19.30;;
77880;SDS011;67077;50.298;18.996;2023-02-15T12:30:43;36.10;;;19.40;;
77880;SDS011;67077;50.298;18.996;2023-02-15T12:33:31;35.30;;;19.20;;
77880;SDS011;67077;50.298;18.996;2023-02-15T12:36:09;37.80;;;19.00;;
77880;SDS011;67077;50.298;18.996;2023-02-15T12:41:33;29.80;;;16.50;;
77880;SDS011;67077;50.298;18.996;2023-02-15T12:44:03;30.80;;;16.70;;
77880;SDS011;67077;50.298;18.996;2023-02-15T12:46:43;31.90;;;17.90;;
77880;SDS011;67077;50.298;18.996;2023-02-15T12:49:25;33.10;;;18.10;;
77880;SDS011;67077;50.298;18.996;2023-02-15T12:51:56;29.70;;;17.30;;
77880;SDS011;67077;50.298;18.996;2023-02-15T12:57:17;33.90;;;18.10;;
77880;SDS011;67077;50.298;18.996;2023-02-15T12:59:49;36.10;;;18.30;;
77880;SDS011;67077;50.298;18.996;2023-02-15T13:03:14;31.10;;;16.70;;
77880;SDS011;67077;50.298;18.996;2023-02-15T13:11:00;34.20;;;18.10;;
77880;SDS011;67077;50.298;18.996;2023-02-15T13:13:35;38.60;;;19.70;;
77880;SDS011;67077;50.298;18.996;2023-02-15T13:16:15;33.30;;;18.90;;
77880;SDS011;67077;50.298;18.996;2023-02-15T13:18:47;34.10;;;17.50;;
77880;SDS011;67077;50.298;18.996;2023-02-15T13:21:23;33.90;;;17.80;;
77880;SDS011;67077;50.298;18.996;2023-02-15T13:24:17;32.00;;;17.10;;
77880;SDS011;67077;50.298;18.996;2023-02-15T13:26:54;31.10;;;17.30;;
77880;SDS011;67077;50.298;18.996;2023-02-15T13:31:58;30.50;;;15.80;;
77880;SDS011;67077;50.298;18.996;2023-02-15T13:34:40;28.20;;;14.70;;
77880;SDS011;67077;50.298;18.996;2023-02-15T13:42:31;26.20;;;13.70;;
77880;SDS011;67077;50.298;18.996;2023-02-15T13:51:14;25.40;;;13.80;;
77880;SDS011;67077;50.298;18.996;2023-02-15T14:02:35;25.30;;;13.60;;
77880;SDS011;67077;50.298;18.996;2023-02-15T14:08:42;22.70;;;12.60;;
77880;SDS011;67077;50.298;18.996;2023-02-15T14:11:29;23.00;;;12.80;;
77880;SDS011;67077;50.298;18.996;2023-02-15T14:14:35;22.40;;;13.00;;
77880;SDS011;67077;50.298;18.996;2023-02-15T14:17:21;22.90;;;12.30;;
77880;SDS011;67077;50.298;18.996;2023-02-15T14:20:15;26.30;;;13.10;;
77880;SDS011;67077;50.298;18.996;2023-02-15T14:25:48;24.40;;;12.40;;
77880;SDS011;67077;50.298;18.996;2023-02-15T14:31:00;25.00;;;13.20;;
77880;SDS011;67077;50.298;18.996;2023-02-15T14:33:43;27.00;;;13.90;;
77880;SDS011;67077;50.298;18.996;2023-02-15T14:36:21;28.40;;;14.70;;
77880;SDS011;67077;50.298;18.996;2023-02-15T14:44:15;28.70;;;14.10;;
77880;SDS011;67077;50.298;18.996;2023-02-15T14:49:32;27.40;;;14.10;;
77880;SDS011;67077;50.298;18.996;2023-02-15T14:52:11;28.70;;;15.30;;
77880;SDS011;67077;50.298;18.996;2023-02-15T15:04:52;32.40;;;17.70;;
77880;SDS011;67077;50.298;18.996;2023-02-15T15:07:34;34.90;;;17.70;;
77880;SDS011;67077;50.298;18.996;2023-02-15T15:17:57;32.70;;;18.20;;
77880;SDS011;67077;50.298;18.996;2023-02-15T15:20:44;36.90;;;18.90;;
77880;SDS011;67077;50.298;18.996;2023-02-15T15:25:48;36.60;;;19.00;;
77880;SDS011;67077;50.298;18.996;2023-02-15T15:51:02;39.90;;;20.20;;
77880;SDS011;67077;50.298;18.996;2023-02-15T15:53:39;42.00;;;20.80;;
77880;SDS011;67077;50.298;18.996;2023-02-15T15:56:14;42.90;;;21.90;;
77880;SDS011;67077;50.298;18.996;2023-02-15T15:58:48;43.20;;;22.00;;
77880;SDS011;67077;50.298;18.996;2023-02-15T16:01:26;47.40;;;22.70;;
77880;SDS011;67077;50.298;18.996;2023-02-15T16:03:56;42.90;;;21.40;;
77880;SDS011;67077;50.298;18.996;2023-02-15T16:06:27;42.50;;;22.30;;
77880;SDS011;67077;50.298;18.996;2023-02-15T16:09:10;48.20;;;22.40;;
77880;SDS011;67077;50.298;18.996;2023-02-15T16:11:38;44.00;;;21.70;;
77880;SDS011;67077;50.298;18.996;2023-02-15T16:14:12;42.80;;;21.30;;
77880;SDS011;67077;50.298;18.996;2023-02-15T16:16:48;52.70;;;23.00;;
77880;SDS011;67077;50.298;18.996;2023-02-15T16:19:22;51.00;;;23.10;;
77880;SDS011;67077;50.298;18.996;2023-02-15T16:21:54;50.90;;;23.50;;
77880;SDS011;67077;50.298;18.996;2023-02-15T16:24:28;49.50;;;23.90;;
77880;SDS011;67077;50.298;18.996;2023-02-15T16:30:28;59.00;;;26.60;;
77880;SDS011;67077;50.298;18.996;2023-02-15T16:33:05;58.00;;;27.40;;
77880;SDS011;67077;50.298;18.996;2023-02-15T16:35:34;57.00;;;24.60;;
77880;SDS011;67077;50.298;18.996;2023-02-15T16:38:05;55.00;;;25.90;;
77880;SDS011;67077;50.298;18.996;2023-02-15T16:40:48;54.50;;;26.00;;
77880;SDS011;67077;50.298;18.996;2023-02-15T16:43:26;59.50;;;28.60;;
77880;SDS011;67077;50.298;18.996;2023-02-15T16:46:20;66.50;;;29.90;;
77880;SDS011;67077;50.298;18.996;2023-02-15T16:49:27;73.40;;;32.20;;
77880;SDS011;67077;50.298;18.996;2023-02-15T16:52:01;73.10;;;31.90;;
77880;SDS011;67077;50.298;18.996;2023-02-15T16:54:33;70.70;;;31.70;;
77880;SDS011;67077;50.298;18.996;2023-02-15T16:57:02;67.80;;;32.40;;
77880;SDS011;67077;50.298;18.996;2023-02-15T16:59:41;67.00;;;31.60;;
77880;SDS011;67077;50.298;18.996;2023-02-15T17:02:17;77.60;;;36.00;;
77880;SDS011;67077;50.298;18.996;2023-02-15T17:07:39;79.10;;;36.00;;
77880;SDS011;67077;50.298;18.996;2023-02-15T17:10:27;77.30;;;35.90;;
77880;SDS011;67077;50.298;18.996;2023-02-15T17:13:02;72.50;;;34.50;;
77880;SDS011;67077;50.298;18.996;2023-02-15T17:15:36;86.30;;;39.30;;
77880;SDS011;67077;50.298;18.996;2023-02-15T17:18:08;84.50;;;38.90;;
77880;SDS011;67077;50.298;18.996;2023-02-15T17:20:47;85.50;;;39.50;;
77880;SDS011;67077;50.298;18.996;2023-02-15T17:23:22;90.40;;;40.50;;
77880;SDS011;67077;50.298;18.996;2023-02-15T17:25:51;86.00;;;38.90;;
77880;SDS011;67077;50.298;18.996;2023-02-15T17:28:21;94.90;;;42.10;;
77880;SDS011;67077;50.298;18.996;2023-02-15T17:30:55;93.30;;;40.20;;
77880;SDS011;67077;50.298;18.996;2023-02-15T17:33:26;99.80;;;43.60;;
77880;SDS011;67077;50.298;18.996;2023-02-15T17:41:28;103.40;;;44.40;;
77880;SDS011;67077;50.298;18.996;2023-02-15T17:44:05;102.20;;;44.30;;
77880;SDS011;67077;50.298;18.996;2023-02-15T17:46:36;108.20;;;44.80;;
77880;SDS011;67077;50.298;18.996;2023-02-15T17:49:04;95.30;;;42.80;;
77880;SDS011;67077;50.298;18.996;2023-02-15T17:51:33;95.10;;;43.40;;
77880;SDS011;67077;50.298;18.996;2023-02-15T17:54:04;76.60;;;34.30;;
77880;SDS011;67077;50.298;18.996;2023-02-15T17:56:51;80.00;;;35.70;;
77880;SDS011;67077;50.298;18.996;2023-02-15T17:59:19;77.70;;;35.50;;
77880;SDS011;67077;50.298;18.996;2023-02-15T18:01:47;78.60;;;37.30;;
77880;SDS011;67077;50.298;18.996;2023-02-15T18:04:35;74.20;;;34.50;;
77880;SDS011;67077;50.298;18.996;2023-02-15T18:07:23;75.70;;;35.40;;
77880;SDS011;67077;50.298;18.996;2023-02-15T18:10:15;70.70;;;31.50;;
77880;SDS011;67077;50.298;18.996;2023-02-15T18:13:04;74.50;;;34.40;;
77880;SDS011;67077;50.298;18.996;2023-02-15T18:15:32;80.80;;;36.10;;
77880;SDS011;67077;50.298;18.996;2023-02-15T18:18:02;71.60;;;33.90;;
77880;SDS011;67077;50.298;18.996;2023-02-15T18:20:33;67.40;;;31.70;;
77880;SDS011;67077;50.298;18.996;2023-02-15T18:23:04;72.00;;;34.00;;
77880;SDS011;67077;50.298;18.996;2023-02-15T18:25:33;66.80;;;32.10;;
77880;SDS011;67077;50.298;18.996;2023-02-15T18:28:01;63.30;;;31.00;;
77880;SDS011;67077;50.298;18.996;2023-02-15T18:30:30;63.00;;;31.80;;
77880;SDS011;67077;50.298;18.996;2023-02-15T18:33:00;67.20;;;32.00;;
77880;SDS011;67077;50.298;18.996;2023-02-15T18:35:29;61.30;;;28.00;;